Time;durP1;ratioP1;P1;durP2;ratioP2;P2;SDS_P1;SDS_P2;PMS_P1;PMS_P2;Temp;Humidity;BMP_temperature;BMP_pressure;BME280_temperature;BME280_humidity;BME280_pressure;Samples;Min_cycle;Max_cycle;Signal;HPM_P1;HPM_P2
2024/01/12 00:03:04;;;;;;;1999.90;999.90;;;;;;;0.38;100.00;103337.41;10345442;28;20497;-64
2024/01/12 00:08:06;;;;;;;1999.90;999.90;;;;;;;0.79;100.00;103339.28;10347076;28;20050;-64
2024/01/12 00:13:08;;;;;;;1999.90;999.90;;;;;;;0.62;100.00;103347.47;10346564;28;20142;-64
2024/01/12 00:18:11;;;;;;;1999.90;999.90;;;;;;;0.51;100.00;103346.34;10346363;28;20478;-64
2024/01/12 00:23:14;;;;;;;1999.90;999.90;;;;;;;0.91;100.00;103344.75;10346206;28;20053;-64
2024/01/12 00:28:16;;;;;;;1999.90;999.90;;;;;;;0.83;100.00;103341.09;10346186;28;20498;-64
2024/01/12 00:33:19;;;;;;;1999.90;999.90;;;;;;;0.60;100.00;103322.50;10346259;28;20050;-64
2024/01/12 00:38:21;;;;;;;1999.90;999.90;;;;;;;0.84;100.00;103319.63;10345935;28;20456;-64
2024/01/12 00:43:24;;;;;;;1999.90;999.90;;;;;;;0.78;100.00;103316.91;10344058;28;20049;-64
2024/01/12 00:48:26;;;;;;;1999.90;999.90;;;;;;;0.64;100.00;103320.03;10339173;28;20129;-64
2024/01/12 00:53:29;;;;;;;1999.90;999.90;;;;;;;0.48;100.00;103335.94;10338189;28;20391;-64
2024/01/12 00:58:31;;;;;;;1999.90;999.90;;;;;;;0.69;100.00;103331.31;10339341;28;20062;-64
2024/01/12 01:03:33;;;;;;;1999.90;999.90;;;;;;;0.90;100.00;103341.28;10338894;28;20485;-64
2024/01/12 01:08:36;;;;;;;1999.90;999.90;;;;;;;0.89;100.00;103349.88;10338789;28;20054;-64
2024/01/12 01:13:38;;;;;;;1999.90;999.90;;;;;;;0.77;100.00;103346.97;10338636;28;20073;-64
2024/01/12 01:18:41;;;;;;;1999.90;999.90;;;;;;;0.65;100.00;103349.25;10338567;28;20516;-64
2024/01/12 01:23:43;;;;;;;1999.90;999.90;;;;;;;0.83;100.00;103356.59;10338146;28;20513;-64
2024/01/12 01:28:46;;;;;;;1999.90;999.90;;;;;;;0.71;100.00;103359.75;10338095;28;20050;-64
2024/01/12 01:33:48;;;;;;;1999.90;999.90;;;;;;;0.88;100.00;103361.00;10338040;28;20061;-64
2024/01/12 01:38:51;;;;;;;1999.90;999.90;;;;;;;0.82;100.00;103365.16;10337622;28;20129;-64
2024/01/12 01:43:53;;;;;;;1999.90;999.90;;;;;;;0.84;100.00;103363.47;10337427;28;20484;-64
2024/01/12 01:48:55;;;;;;;1999.90;999.90;;;;;;;0.72;100.00;103358.88;10337357;28;20056;-64
2024/01/12 01:53:58;;;;;;;1999.90;999.90;;;;;;;0.74;100.00;103344.34;10335990;28;20047;-64
2024/01/12 01:59:00;;;;;;;1999.90;999.90;;;;;;;0.46;100.00;103353.09;10335654;28;20093;-64
2024/01/12 02:04:03;;;;;;;1999.90;999.90;;;;;;;0.73;100.00;103343.44;10335423;28;20090;-64
2024/01/12 02:09:06;;;;;;;1999.90;999.90;;;;;;;0.63;100.00;103354.38;10336635;28;20054;-64
2024/01/12 02:14:09;;;;;;;1999.90;999.90;;;;;;;0.82;100.00;103352.25;10318916;28;20054;-64
2024/01/12 02:19:12;;;;;;;1999.90;999.90;;;;;;;0.86;100.00;103344.63;10334854;28;20420;-64
2024/01/12 02:24:14;;;;;;;1999.90;999.90;;;;;;;0.99;100.00;103332.00;10335753;28;20058;-64
2024/01/12 02:29:16;;;;;;;1999.90;999.90;;;;;;;0.62;100.00;103331.13;10335587;28;20493;-64
2024/01/12 02:34:19;;;;;;;1999.90;999.90;;;;;;;0.87;100.00;103324.84;10335414;28;20073;-64
2024/01/12 02:39:21;;;;;;;1999.90;999.90;;;;;;;0.87;100.00;103330.00;10335271;28;20073;-64
2024/01/12 02:44:24;;;;;;;1999.90;999.90;;;;;;;0.64;100.00;103332.03;10335197;28;20074;-64
2024/01/12 02:49:26;;;;;;;1999.90;999.90;;;;;;;1.02;100.00;103340.69;10318065;28;20046;-64
2024/01/12 02:54:29;;;;;;;1999.90;999.90;;;;;;;1.09;100.00;103334.84;10334785;28;20449;-64
2024/01/12 02:59:32;;;;;;;1999.90;999.90;;;;;;;0.72;100.00;103330.50;10334612;28;20140;-64
2024/01/12 03:04:34;;;;;;;1999.90;999.90;;;;;;;1.06;100.00;103332.19;10334316;28;20046;-64
2024/01/12 03:09:38;;;;;;;1999.90;999.90;;;;;;;0.94;100.00;103321.56;10334013;28;20129;-64
2024/01/12 03:14:40;;;;;;;1999.90;999.90;;;;;;;1.01;100.00;103317.44;10333122;28;20125;-64
2024/01/12 03:19:42;;;;;;;1999.90;999.90;;;;;;;0.78;100.00;103324.66;10332884;28;20556;-64
2024/01/12 03:24:45;;;;;;;1999.90;999.90;;;;;;;0.94;100.00;103326.72;10332135;28;20082;-64
2024/01/12 03:29:47;;;;;;;1999.90;999.90;;;;;;;1.01;100.00;103320.91;10332458;28;20504;-64
2024/01/12 03:34:50;;;;;;;1999.90;999.90;;;;;;;0.99;100.00;103298.47;10333899;28;20074;-64
2024/01/12 03:39:52;;;;;;;1999.90;999.90;;;;;;;0.77;100.00;103312.59;10332388;28;20421;-64
2024/01/12 03:44:55;;;;;;;1999.90;999.90;;;;;;;0.98;100.00;103300.19;10333695;28;20046;-64
2024/01/12 03:49:57;;;;;;;1999.90;999.90;;;;;;;0.86;100.00;103299.91;10333583;28;20050;-64
2024/01/12 03:55:00;;;;;;;1999.90;999.90;;;;;;;0.83;100.00;103297.25;10333291;28;20133;-64
2024/01/12 04:00:03;;;;;;;1999.90;999.90;;;;;;;0.82;100.00;103313.56;10333280;28;20137;-64
2024/01/12 04:05:05;;;;;;;1999.90;999.90;;;;;;;0.94;100.00;103319.00;10333117;28;20080;-64
2024/01/12 04:10:08;;;;;;;1999.90;999.90;;;;;;;0.79;100.00;103314.38;10333310;28;20053;-64
2024/01/12 04:15:10;;;;;;;1999.90;999.90;;;;;;;1.06;100.00;103311.56;10331899;28;20126;-64
2024/01/12 04:20:13;;;;;;;1999.90;999.90;;;;;;;1.11;100.00;103315.09;10334199;28;20061;-64
2024/01/12 04:25:16;;;;;;;1999.90;999.90;;;;;;;0.92;100.00;103307.78;10340440;28;20130;-64
2024/01/12 04:30:18;;;;;;;1999.90;999.90;;;;;;;1.01;100.00;103308.00;10340281;28;20081;-64
2024/01/12 04:35:21;;;;;;;1999.90;999.90;;;;;;;0.81;100.00;103311.81;10340061;28;20498;-64
2024/01/12 04:40:23;;;;;;;1999.90;999.90;;;;;;;1.04;100.00;103309.75;10339853;28;20084;-64
2024/01/12 04:45:26;;;;;;;1999.90;999.90;;;;;;;1.13;100.00;103302.25;10339891;28;20112;-64
2024/01/12 04:50:28;;;;;;;1999.90;999.90;;;;;;;0.92;100.00;103280.28;10339730;28;20061;-64
2024/01/12 04:55:31;;;;;;;1999.90;999.90;;;;;;;1.26;100.00;103280.13;10339428;28;20046;-64
2024/01/12 05:00:33;;;;;;;1999.90;999.90;;;;;;;0.98;100.00;103274.38;10339331;28;20057;-64
2024/01/12 05:05:36;;;;;;;1999.90;999.90;;;;;;;0.83;100.00;103272.34;10337699;28;20092;-64
2024/01/12 05:10:39;;;;;;;1999.90;999.90;;;;;;;1.24;100.00;103274.06;10338965;28;20050;-64
2024/01/12 05:15:41;;;;;;;1999.90;999.90;;;;;;;1.10;100.00;103274.66;10338552;28;20047;-64
2024/01/12 05:20:43;;;;;;;1999.90;999.90;;;;;;;1.04;100.00;103281.38;10338315;28;20493;-64
2024/01/12 05:25:46;;;;;;;1999.90;999.90;;;;;;;1.17;100.00;103296.31;10337892;28;20383;-64
2024/01/12 05:30:48;;;;;;;1999.90;999.90;;;;;;;1.19;100.00;103302.34;10336409;28;20078;-64
2024/01/12 05:35:51;;;;;;;1999.90;999.90;;;;;;;1.13;100.00;103293.59;10337978;28;20046;-64
2024/01/12 05:40:53;;;;;;;1999.90;999.90;;;;;;;1.33;100.00;103305.25;10337521;28;20121;-64
2024/01/12 05:45:55;;;;;;;1999.90;999.90;;;;;;;1.10;100.00;103302.16;10336404;28;20057;-64
2024/01/12 05:51:01;;;;;;;1999.90;999.90;;;;;;;1.03;100.00;103301.16;10337172;28;20490;-64
2024/01/12 05:56:05;;;;;;;1999.90;999.90;;;;;;;1.05;100.00;103299.47;10337013;28;20061;-64
2024/01/12 06:01:07;;;;;;;1999.90;999.90;;;;;;;1.20;100.00;103298.94;10336981;28;20056;-64
2024/01/12 06:06:11;;;;;;;1999.90;999.90;;;;;;;1.09;100.00;103303.88;10336493;28;20057;-64
2024/01/12 06:11:13;;;;;;;1999.90;999.90;;;;;;;1.26;100.00;103304.25;10319396;28;20138;-64
2024/01/12 06:16:16;;;;;;;1999.90;999.90;;;;;;;1.05;100.00;103303.78;10336197;28;20051;-64
2024/01/12 06:21:19;;;;;;;1999.90;999.90;;;;;;;1.33;100.00;103310.44;10335910;28;20409;-64
2024/01/12 06:26:21;;;;;;;1999.90;999.90;;;;;;;1.13;100.00;103309.97;10335722;28;20054;-64
2024/01/12 06:31:23;;;;;;;1999.90;999.90;;;;;;;1.31;100.00;103317.25;10335582;28;20054;-65
2024/01/12 06:36:26;;;;;;;1999.90;999.90;;;;;;;1.24;100.00;103312.78;10335698;28;20050;-64
2024/01/12 06:41:28;;;;;;;1999.90;999.90;;;;;;;1.18;100.00;103298.06;10334781;28;20129;-64
2024/01/12 06:46:31;;;;;;;1999.90;999.90;;;;;;;1.18;100.00;103299.75;10335069;28;20054;-64
2024/01/12 06:51:33;;;;;;;1999.90;999.90;;;;;;;1.32;100.00;103300.91;10333787;28;20482;-64
2024/01/12 06:56:37;;;;;;;1999.90;999.90;;;;;;;1.02;100.00;103291.66;10334795;28;20125;-65
2024/01/12 07:01:40;;;;;;;1999.90;999.90;;;;;;;1.37;100.00;103291.56;10334455;28;20091;-65
2024/01/12 07:06:43;;;;;;;1999.90;999.90;;;;;;;1.27;100.00;103295.66;10334537;28;20054;-65
2024/01/12 07:11:46;;;;;;;1999.90;999.90;;;;;;;1.16;100.00;103299.75;10334412;28;20054;-65
2024/01/12 07:16:48;;;;;;;1999.90;999.90;;;;;;;1.10;100.00;103292.72;10332940;28;20530;-65
2024/01/12 07:21:50;;;;;;;1999.90;999.90;;;;;;;1.29;100.00;103282.78;10334089;28;20078;-65
2024/01/12 07:26:53;;;;;;;1999.90;999.90;;;;;;;1.34;100.00;103282.88;10333686;28;20088;-65
2024/01/12 07:31:56;;;;;;;1999.90;999.90;;;;;;;1.46;100.00;103273.69;10333752;28;20054;-65
2024/01/12 07:37:00;;;;;;;1999.90;999.90;;;;;;;1.24;100.00;103284.41;10342517;23;20054;-63
2024/01/12 07:42:03;;;;;;;1999.90;999.90;;;;;;;1.20;100.00;103288.63;10333589;28;20074;-63
2024/01/12 07:47:06;;;;;;;1999.90;999.90;;;;;;;1.29;100.00;103291.44;10333791;28;20058;-63
2024/01/12 07:52:08;;;;;;;1999.90;999.90;;;;;;;1.35;100.00;103289.81;10316285;28;20508;-63
2024/01/12 07:57:13;;;;;;;1999.90;999.90;;;;;;;1.14;100.00;103292.78;10340917;28;20137;-63
2024/01/12 08:02:16;;;;;;;1999.90;999.90;;;;;;;1.53;100.00;103289.28;10340284;28;20077;-63
2024/01/12 08:07:18;;;;;;;1999.90;999.90;;;;;;;1.46;100.00;103296.03;10341228;28;20408;-63
2024/01/12 08:12:21;;;;;;;1999.90;999.90;;;;;;;1.61;100.00;103306.69;10341219;28;20054;-63
2024/01/12 08:17:23;;;;;;;1999.90;999.90;;;;;;;1.26;100.00;103303.38;10340866;28;20429;-63
2024/01/12 08:22:26;;;;;;;1999.90;999.90;;;;;;;1.63;100.00;103289.53;10339703;28;20056;-64
2024/01/12 08:27:28;;;;;;;1999.90;999.90;;;;;;;1.43;100.00;103289.13;10339495;28;20050;-64
2024/01/12 08:32:31;;;;;;;1999.90;999.90;;;;;;;1.73;100.00;103298.34;10340244;28;20050;-64
2024/01/12 08:37:33;;;;;;;1999.90;999.90;;;;;;;1.67;100.00;103299.06;10340079;28;20058;-64
2024/01/12 08:42:37;;;;;;;1999.90;999.90;;;;;;;1.50;100.00;103287.53;10339935;28;20043;-64
2024/01/12 08:47:39;;;;;;;1999.90;999.90;;;;;;;1.89;100.00;103291.72;10339926;28;20050;-64
2024/01/12 08:52:42;;;;;;;1999.90;999.90;;;;;;;1.84;100.00;103283.88;10339532;28;20046;-64
2024/01/12 08:57:45;;;;;;;1999.90;999.90;;;;;;;1.76;100.00;103282.88;10339484;28;20133;-64
2024/01/12 09:02:48;;;;;;;1999.90;999.90;;;;;;;1.98;100.00;103283.28;10339072;28;20076;-65
2024/01/12 09:07:50;;;;;;;1999.90;999.90;;;;;;;1.89;100.00;103296.03;10338078;28;20046;-64
2024/01/12 09:12:53;;;;;;;1999.90;999.90;;;;;;;2.13;100.00;103280.09;10338955;28;20133;-65
2024/01/12 09:17:55;;;;;;;1999.90;999.90;;;;;;;2.05;100.00;103277.38;10362270;28;20485;-65
2024/01/12 09:22:58;;;;;;;1999.90;999.90;;;;;;;1.95;100.00;103270.28;10378653;28;20046;-65
2024/01/12 09:28:00;;;;;;;1999.90;999.90;;;;;;;2.12;100.00;103262.84;10376929;28;20137;-65
2024/01/12 09:33:03;;;;;;;1999.90;999.90;;;;;;;2.17;100.00;103262.09;10351978;28;20085;-65
2024/01/12 09:38:06;;;;;;;1999.90;999.90;;;;;;;2.32;100.00;103277.00;10369475;28;20101;-64
2024/01/12 09:43:13;;;;;;;1999.90;999.90;;;;;;;2.40;100.00;103266.75;10351280;28;20061;-65
2024/01/12 09:48:16;;;;;;;1999.90;999.90;;;;;;;2.36;100.00;103272.75;10341178;28;20054;-65
2024/01/12 09:53:19;;;;;;;1999.90;999.90;;;;;;;2.18;100.00;103279.31;10363497;28;20129;-64
2024/01/12 09:58:23;;;;;;;1999.90;999.90;;;;;;;2.42;100.00;103289.22;10336144;28;20054;-66
2024/01/12 10:03:26;;;;;;;1999.90;999.90;;;;;;;2.58;100.00;103289.47;10366836;28;20082;-65
2024/01/12 10:08:36;;;;;;;1999.90;999.90;;;;;;;2.91;100.00;103286.53;10363585;28;20053;-65
2024/01/12 10:13:39;;;;;;;1999.90;999.90;;;;;;;2.60;100.00;103283.47;10352373;28;20061;-65
2024/01/12 10:18:42;;;;;;;1999.90;999.90;;;;;;;2.71;100.00;103270.72;10334125;28;20049;-66
2024/01/12 10:23:45;;;;;;;1999.90;999.90;;;;;;;2.38;100.00;103274.50;10336951;28;20413;-66
2024/01/12 10:28:47;;;;;;;1999.90;999.90;;;;;;;2.47;100.00;103271.22;10362879;28;20077;-66
2024/01/12 10:33:50;;;;;;;1999.90;999.90;;;;;;;2.52;100.00;103267.00;10309958;28;20732;-67
2024/01/12 10:38:53;;;;;;;1999.90;999.90;;;;;;;2.23;100.00;103263.91;10306454;28;20105;-67
2024/01/12 10:43:59;;;;;;;1999.90;999.90;;;;;;;2.48;100.00;103265.19;10305770;28;20046;-67
2024/01/12 10:49:18;;;;;;;1999.90;999.90;;;;;;;2.75;100.00;103276.81;10307343;28;20050;-67
2024/01/12 10:54:33;;;;;;;1999.90;999.90;;;;;;;2.68;100.00;103267.22;10309974;28;20078;-67
2024/01/12 10:59:35;;;;;;;1999.90;999.90;;;;;;;3.00;100.00;103253.88;10294821;28;20130;-67
2024/01/12 11:04:38;;;;;;;1999.90;999.90;;;;;;;2.55;100.00;103254.06;10294366;28;20054;-67
2024/01/12 11:09:41;;;;;;;1999.90;999.90;;;;;;;2.76;100.00;103247.50;10309487;28;20057;-67
2024/01/12 11:14:43;;;;;;;1999.90;999.90;;;;;;;2.91;100.00;103254.63;10309109;28;20061;-67
2024/01/12 11:19:46;;;;;;;1999.90;999.90;;;;;;;2.91;100.00;103254.63;10293945;28;20082;-67
2024/01/12 11:24:48;;;;;;;1999.90;999.90;;;;;;;2.77;100.00;103254.41;10308819;28;20130;-64
2024/01/12 11:29:57;;;;;;;1999.90;999.90;;;;;;;2.78;100.00;103257.00;10308194;28;20163;-64
2024/01/12 11:35:16;;;;;;;1999.90;999.90;;;;;;;2.80;100.00;103254.44;10308536;28;20515;-64
2024/01/12 11:40:19;;;;;;;1999.90;999.90;;;;;;;3.03;100.00;103246.16;10308317;28;20070;-66
2024/01/12 11:45:21;;;;;;;1999.90;999.90;;;;;;;3.05;100.00;103240.13;10293508;28;20043;-67
2024/01/12 11:50:24;;;;;;;1999.90;999.90;;;;;;;2.92;100.00;103233.91;10293224;28;20485;-67
2024/01/12 11:55:27;;;;;;;1999.90;999.90;;;;;;;3.19;100.00;103221.31;10308249;28;20057;-67
2024/01/12 12:00:30;;;;;;;1999.90;999.90;;;;;;;3.00;100.00;103220.22;10292987;28;20486;-66
2024/01/12 12:05:33;;;;;;;1999.90;999.90;;;;;;;3.09;100.00;103212.56;10293124;28;20051;-66
2024/01/12 12:10:35;;;;;;;1999.90;999.90;;;;;;;3.09;100.00;103210.88;10293161;28;20093;-66
2024/01/12 12:15:47;;;;;;;1999.90;999.90;;;;;;;2.96;100.00;103190.84;10292862;28;20454;-66
2024/01/12 12:20:49;;;;;;;1999.90;999.90;;;;;;;2.96;100.00;103185.69;10291483;28;20062;-66
2024/01/12 12:25:54;;;;;;;1999.90;999.90;;;;;;;3.27;100.00;103171.34;10307342;28;20047;-68
2024/01/12 12:30:56;;;;;;;1999.90;999.90;;;;;;;3.16;100.00;103163.50;10292594;28;20138;-68
2024/01/12 12:36:07;;;;;;;1999.90;999.90;;;;;;;3.28;100.00;103159.31;10292582;28;20047;-68
2024/01/12 12:41:11;;;;;;;1999.90;999.90;;;;;;;3.21;100.00;103152.31;10294388;28;20445;-68
2024/01/12 12:46:14;;;;;;;1999.90;999.90;;;;;;;3.20;100.00;103140.22;10299410;28;20070;-68
2024/01/12 12:51:16;;;;;;;1999.90;999.90;;;;;;;3.29;100.00;103135.13;10299331;28;20409;-66
2024/01/12 12:56:18;;;;;;;1999.90;999.90;;;;;;;3.37;100.00;103135.22;10298111;28;20391;-68
2024/01/12 13:01:21;;;;;;;1999.90;999.90;;;;;;;3.47;100.00;103130.13;10313916;28;20047;-68
2024/01/12 13:06:24;;;;;;;1999.90;999.90;;;;;;;3.31;100.00;103128.25;10298773;28;20475;-68
2024/01/12 13:11:27;;;;;;;1999.90;999.90;;;;;;;3.43;100.00;103122.31;10298613;28;20058;-68
2024/01/12 13:16:31;;;;;;;1999.90;999.90;;;;;;;3.49;100.00;103112.03;10298532;28;20073;-66
2024/01/12 13:21:33;;;;;;;1999.90;999.90;;;;;;;3.43;100.00;103111.94;10298295;28;20413;-68
2024/01/12 13:26:36;;;;;;;1999.90;999.90;;;;;;;3.43;100.00;103096.41;10298113;28;20062;-66
2024/01/12 13:31:42;;;;;;;1999.90;999.90;;;;;;;3.54;100.00;103108.59;10313186;28;20074;-66
2024/01/12 13:36:47;;;;;;;1999.90;999.90;;;;;;;3.38;100.00;103095.50;10297828;28;20193;-66
2024/01/12 13:41:50;;;;;;;1999.90;999.90;;;;;;;3.55;100.00;103091.38;10297499;28;20488;-66
2024/01/12 13:46:53;;;;;;;1999.90;999.90;;;;;;;3.55;100.00;103104.31;10297346;28;20085;-66
2024/01/12 13:51:56;;;;;;;1999.90;999.90;;;;;;;3.58;100.00;103096.59;10297068;28;20051;-68
2024/01/12 13:56:58;;;;;;;1999.90;999.90;;;;;;;3.61;100.00;103095.72;10296896;28;20601;-68
2024/01/12 14:02:00;;;;;;;1999.90;999.90;;;;;;;3.46;100.00;103084.38;10297411;28;20051;-68
2024/01/12 14:07:03;;;;;;;1999.90;999.90;;;;;;;3.66;100.00;103081.94;10296727;28;20062;-68
2024/01/12 14:12:05;;;;;;;1999.90;999.90;;;;;;;3.35;100.00;103073.91;10311559;28;20046;-68
2024/01/12 14:17:13;;;;;;;1999.90;999.90;;;;;;;3.42;100.00;103066.22;10296641;28;20051;-68
2024/01/12 14:22:15;;;;;;;1999.90;999.90;;;;;;;3.42;100.00;103069.66;10295847;28;20504;-69
2024/01/12 14:27:18;;;;;;;1999.90;999.90;;;;;;;3.50;100.00;103070.59;10296194;28;20047;-66
2024/01/12 14:32:20;;;;;;;1999.90;999.90;;;;;;;3.50;100.00;103074.91;10295763;28;20078;-66
2024/01/12 14:37:23;;;;;;;1999.90;999.90;;;;;;;3.83;100.00;103081.22;10295220;28;20410;-66
2024/01/12 14:42:26;;;;;;;1999.90;999.90;;;;;;;3.50;100.00;103080.09;10295296;28;20130;-66
2024/01/12 14:47:28;;;;;;;1999.90;999.90;;;;;;;3.60;100.00;103076.72;10294979;28;20479;-66
2024/01/12 14:52:31;;;;;;;1999.90;999.90;;;;;;;3.70;100.00;103068.16;10295406;28;20050;-66
2024/01/12 14:57:34;;;;;;;1999.90;999.90;;;;;;;3.84;100.00;103076.03;10295338;28;20046;-66
2024/01/12 15:02:37;;;;;;;1999.90;999.90;;;;;;;3.79;100.00;103074.28;10294458;28;20065;-66
2024/01/12 15:07:40;;;;;;;1999.90;999.90;;;;;;;3.71;100.00;103072.47;10294456;28;20057;-66
2024/01/12 15:12:42;;;;;;;1999.90;999.90;;;;;;;3.50;100.00;103072.34;10309266;28;20061;-66
2024/01/12 15:17:44;;;;;;;1999.90;999.90;;;;;;;3.44;100.00;103072.25;10294113;28;20501;-66
2024/01/12 15:22:47;;;;;;;1999.90;999.90;;;;;;;3.49;100.00;103076.63;10308877;28;20061;-67
2024/01/12 15:27:49;;;;;;;1999.90;999.90;;;;;;;3.61;100.00;103062.91;10294079;28;20058;-68
2024/01/12 15:32:52;;;;;;;1999.90;999.90;;;;;;;3.58;100.00;103067.19;10293750;28;20055;-69
2024/01/12 15:37:55;;;;;;;1999.90;999.90;;;;;;;3.62;100.00;103064.66;10308675;28;20121;-69
2024/01/12 15:42:57;;;;;;;1999.90;999.90;;;;;;;3.35;100.00;103073.06;10293577;28;20477;-69
2024/01/12 15:48:00;;;;;;;1999.90;999.90;;;;;;;3.38;100.00;103070.50;10293513;28;20054;-69
2024/01/12 15:53:03;;;;;;;1999.90;999.90;;;;;;;3.18;100.00;103067.72;10293329;28;20459;-69
2024/01/12 15:58:05;;;;;;;1999.90;999.90;;;;;;;3.14;100.00;103064.25;10293146;28;20505;-69
2024/01/12 16:03:08;;;;;;;1999.90;999.90;;;;;;;3.18;100.00;103052.19;10293064;28;20387;-67
2024/01/12 16:08:10;;;;;;;1999.90;999.90;;;;;;;3.16;100.00;103053.88;10293415;28;20055;-67
2024/01/12 16:13:13;;;;;;;1999.90;999.90;;;;;;;2.90;100.00;103056.22;10292908;28;20553;-67
2024/01/12 16:18:15;;;;;;;1999.90;999.90;;;;;;;3.01;100.00;103057.19;10300164;28;20051;-66
2024/01/12 16:23:18;;;;;;;1999.90;999.90;;;;;;;2.56;100.00;103061.84;10315299;28;20466;-67
2024/01/12 16:28:21;;;;;;;1999.90;999.90;;;;;;;2.56;100.00;103058.41;10301015;28;20050;-66
2024/01/12 16:33:23;;;;;;;1999.90;999.90;;;;;;;2.97;100.00;103064.03;10300138;28;20051;-66
2024/01/12 16:38:26;;;;;;;1999.90;999.90;;;;;;;2.63;100.00;103059.34;10299617;28;20506;-66
2024/01/12 16:43:29;;;;;;;1999.90;999.90;;;;;;;2.74;100.00;103063.81;10299855;28;20054;-67
2024/01/12 16:48:31;;;;;;;1999.90;999.90;;;;;;;2.83;100.00;103062.19;10298710;28;20082;-67
2024/01/12 16:53:33;;;;;;;1999.90;999.90;;;;;;;2.68;100.00;103068.91;10299865;28;20109;-66
2024/01/12 16:58:36;;;;;;;1999.90;999.90;;;;;;;2.67;100.00;103067.16;10299404;28;20098;-66
2024/01/12 17:03:39;;;;;;;1999.90;999.90;;;;;;;2.75;100.00;103072.44;10298926;28;20557;-66
2024/01/12 17:08:41;;;;;;;1999.90;999.90;;;;;;;2.83;100.00;103063.03;10299071;28;20061;-66
2024/01/12 17:13:44;;;;;;;1999.90;999.90;;;;;;;2.94;100.00;103055.38;10298772;28;20094;-68
2024/01/12 17:18:46;;;;;;;1999.90;999.90;;;;;;;2.98;100.00;103058.03;10298480;28;20401;-69
2024/01/12 17:23:48;;;;;;;1999.90;999.90;;;;;;;2.84;100.00;103056.13;10298295;28;20051;-68
2024/01/12 17:28:51;;;;;;;1999.90;999.90;;;;;;;2.70;100.00;103054.25;10297563;28;20073;-67
2024/01/12 17:33:53;;;;;;;1999.90;999.90;;;;;;;2.77;100.00;103052.59;10313105;28;20054;-67
2024/01/12 17:38:56;;;;;;;1999.90;999.90;;;;;;;2.83;100.00;103042.34;10297389;28;20061;-67
2024/01/12 17:43:58;;;;;;;1999.90;999.90;;;;;;;2.83;100.00;103031.97;10297370;28;20054;-67
2024/01/12 17:49:01;;;;;;;1999.90;999.90;;;;;;;2.96;100.00;103038.16;10297220;28;20085;-67
2024/01/12 17:54:03;;;;;;;1999.90;999.90;;;;;;;2.83;100.00;103034.56;10297074;28;20482;-67
2024/01/12 17:59:06;;;;;;;1999.90;999.90;;;;;;;2.84;100.00;103028.56;10296962;28;20061;-67
2024/01/12 18:04:09;;;;;;;1999.90;999.90;;;;;;;2.52;100.00;103042.00;10311426;28;20047;-67
2024/01/12 18:09:11;;;;;;;1999.90;999.90;;;;;;;2.60;100.00;103042.06;10296815;28;20133;-67
2024/01/12 18:14:14;;;;;;;1999.90;999.90;;;;;;;2.42;100.00;103035.84;10311200;28;20106;-67
2024/01/12 18:19:18;;;;;;;1999.90;999.90;;;;;;;2.28;100.00;103036.50;10294888;28;20051;-67
2024/01/12 18:24:21;;;;;;;1999.90;999.90;;;;;;;2.29;100.00;103038.25;10294606;28;20406;-67
2024/01/12 18:29:23;;;;;;;1999.90;999.90;;;;;;;2.32;100.00;103038.25;10295796;28;20514;-67
2024/01/12 18:34:27;;;;;;;1999.90;999.90;;;;;;;2.57;100.00;103034.25;10295671;28;20113;-67
2024/01/12 18:39:30;;;;;;;1999.90;999.90;;;;;;;2.09;100.00;103031.09;10294101;28;20055;-67
2024/01/12 18:44:33;;;;;;;1999.90;999.90;;;;;;;2.31;100.00;103036.56;10295130;28;20050;-67
2024/01/12 18:49:36;;;;;;;1999.90;999.90;;;;;;;2.53;100.00;103037.69;10294844;28;20477;-67
2024/01/12 18:54:39;;;;;;;1999.90;999.90;;;;;;;2.33;100.00;103040.88;10293570;28;20057;-67
2024/01/12 18:59:42;;;;;;;1999.90;999.90;;;;;;;2.40;100.00;103041.81;10294659;28;20057;-67
2024/01/12 19:04:46;;;;;;;1999.90;999.90;;;;;;;2.48;100.00;103035.03;10294615;28;20051;-67
2024/01/12 19:09:48;;;;;;;1999.90;999.90;;;;;;;2.65;100.00;103034.38;10294737;28;20065;-66
2024/01/12 19:14:51;;;;;;;1999.90;999.90;;;;;;;2.59;100.00;103035.19;10294156;28;20054;-66
2024/01/12 19:19:53;;;;;;;1999.90;999.90;;;;;;;2.49;100.00;103030.72;10293268;28;20054;-67
2024/01/12 19:24:56;;;;;;;1999.90;999.90;;;;;;;2.56;100.00;103025.66;10293957;28;20050;-67
2024/01/12 19:29:58;;;;;;;1999.90;999.90;;;;;;;2.38;100.00;103020.25;10292758;28;20083;-67
2024/01/12 19:35:03;;;;;;;1999.90;999.90;;;;;;;2.55;100.00;103010.97;10294033;28;20047;-67
2024/01/12 19:40:06;;;;;;;1999.90;999.90;;;;;;;1.99;100.00;103019.75;10293443;28;20153;-66
2024/01/12 19:45:09;;;;;;;1999.90;999.90;;;;;;;2.40;100.00;103014.28;10293432;28;20494;-67
2024/01/12 19:50:11;;;;;;;1999.90;999.90;;;;;;;2.30;100.00;103014.13;10295883;28;20129;-67
2024/01/12 19:55:14;;;;;;;1999.90;999.90;;;;;;;2.15;100.00;103009.63;10336721;23;20062;-66
2024/01/12 20:00:17;;;;;;;1999.90;999.90;;;;;;;2.42;100.00;103009.97;10340525;28;20056;-66
2024/01/12 20:05:19;;;;;;;1999.90;999.90;;;;;;;2.53;100.00;103009.22;10340342;28;20456;-66
2024/01/12 20:10:21;;;;;;;1999.90;999.90;;;;;;;2.47;100.00;103015.22;10340163;28;20050;-66
2024/01/12 20:15:26;;;;;;;1999.90;999.90;;;;;;;2.46;100.00;103007.44;10340040;28;20053;-66
2024/01/12 20:20:29;;;;;;;1999.90;999.90;;;;;;;2.46;100.00;103013.47;10341533;28;20060;-66
2024/01/12 20:25:31;;;;;;;1999.90;999.90;;;;;;;2.42;100.00;103016.84;10339704;28;20050;-66
2024/01/12 20:30:34;;;;;;;1999.90;999.90;;;;;;;2.65;100.00;103000.75;10339516;28;20050;-66
2024/01/12 20:35:36;;;;;;;1999.90;999.90;;;;;;;2.56;100.00;102998.94;10340452;28;20051;-66
2024/01/12 20:40:40;;;;;;;1999.90;999.90;;;;;;;2.42;100.00;102998.75;10323041;28;20504;-66
2024/01/12 20:45:43;;;;;;;1999.90;999.90;;;;;;;2.51;100.00;102993.69;10340396;28;20073;-66
2024/01/12 20:50:46;;;;;;;1999.90;999.90;;;;;;;2.76;100.00;102987.06;10340101;28;20046;-66
2024/01/12 20:55:49;;;;;;;1999.90;999.90;;;;;;;2.62;100.00;102980.88;10322471;28;20100;-66
2024/01/12 21:00:51;;;;;;;1999.90;999.90;;;;;;;2.62;100.00;102985.19;10337189;28;20125;-66
2024/01/12 21:05:54;;;;;;;1999.90;999.90;;;;;;;2.56;100.00;102979.09;10339366;28;20046;-66
2024/01/12 21:10:57;;;;;;;1999.90;999.90;;;;;;;2.73;100.00;102988.75;10339074;28;20489;-66
2024/01/12 21:15:59;;;;;;;1999.90;999.90;;;;;;;2.58;100.00;102976.53;10338813;28;20433;-66
2024/01/12 21:21:02;;;;;;;1999.90;999.90;;;;;;;2.85;100.00;102978.53;10338838;28;20057;-66
2024/01/12 21:26:05;;;;;;;1999.90;999.90;;;;;;;2.92;100.00;102966.53;10338522;28;20050;-66
2024/01/12 21:31:09;;;;;;;1999.90;999.90;;;;;;;2.84;100.00;102960.41;10338581;28;20056;-66
2024/01/12 21:36:11;;;;;;;1999.90;999.90;;;;;;;2.66;100.00;102958.53;10336941;28;20100;-66
2024/01/12 21:41:15;;;;;;;1999.90;999.90;;;;;;;2.87;100.00;102955.25;10338146;28;20046;-66
2024/01/12 21:46:18;;;;;;;1999.90;999.90;;;;;;;2.69;100.00;102946.47;10336588;28;20046;-66
2024/01/12 21:51:20;;;;;;;1999.90;999.90;;;;;;;2.81;100.00;102950.91;10336408;28;20050;-66
2024/01/12 21:56:23;;;;;;;1999.90;999.90;;;;;;;2.90;100.00;102937.19;10337393;28;20061;-66